Time;durP1;ratioP1;P1;durP2;ratioP2;P2;SDS_P1;SDS_P2;PMS_P1;PMS_P2;Temp;Humidity;BMP_temperature;BMP_pressure;BME280_temperature;BME280_humidity;BME280_pressure;Samples;Min_cycle;Max_cycle;Signal;HPM_P1;HPM_P2
2021/12/06 00:03:08;;;;;;;3.55;2.97;;;20.90;34.20;;;;;;5130199;27;20383;-66
2021/12/06 00:05:34;;;;;;;3.67;3.38;;;20.90;34.50;;;;;;5130469;27;20469;-66
2021/12/06 00:08:00;;;;;;;3.72;3.33;;;21.00;34.40;;;;;;5129466;27;20395;-66
2021/12/06 00:10:28;;;;;;;3.17;2.70;;;21.20;34.10;;;;;;5128914;28;20111;-66
2021/12/06 00:12:54;;;;;;;3.67;3.38;;;21.40;34.00;;;;;;5128720;27;20039;-66
2021/12/06 00:15:20;;;;;;;3.95;3.55;;;21.40;33.70;;;;;;5129078;28;20088;-66
2021/12/06 00:17:46;;;;;;;3.85;3.53;;;21.40;33.70;;;;;;5128650;27;20039;-66
2021/12/06 00:20:14;;;;;;;3.90;3.50;;;21.40;33.70;;;;;;5130122;27;20028;-66
2021/12/06 00:22:41;;;;;;;4.03;3.67;;;21.50;33.70;;;;;;5128568;28;20040;-66
2021/12/06 00:25:09;;;;;;;3.33;3.03;;;21.50;33.50;;;;;;5129890;28;20071;-66
2021/12/06 00:27:38;;;;;;;3.47;3.17;;;21.40;33.60;;;;;;5129707;28;20027;-66
2021/12/06 00:30:14;;;;;;;3.63;3.33;;;21.40;33.60;;;;;;5129791;28;20031;-66
2021/12/06 00:32:41;;;;;;;3.55;3.25;;;21.40;33.60;;;;;;5128758;28;20039;-66
2021/12/06 00:35:11;;;;;;;3.53;3.13;;;21.50;33.70;;;;;;5128427;28;20122;-66
2021/12/06 00:37:44;;;;;;;4.35;3.95;;;21.60;33.50;;;;;;5129643;27;20115;-66
2021/12/06 00:40:11;;;;;;;3.33;3.03;;;21.60;33.20;;;;;;5129541;28;20498;-66
2021/12/06 00:42:39;;;;;;;4.18;3.72;;;21.70;33.30;;;;;;5129510;28;20047;-66
2021/12/06 00:45:10;;;;;;;3.90;3.50;;;21.80;33.10;;;;;;5129742;27;20047;-66
2021/12/06 00:47:42;;;;;;;2.63;2.42;;;21.90;33.10;;;;;;5129559;28;20044;-66
2021/12/06 00:50:08;;;;;;;3.53;3.22;;;22.10;32.80;;;;;;5128047;28;20035;-66
2021/12/06 00:52:37;;;;;;;3.33;3.03;;;22.10;32.60;;;;;;5128167;28;20478;-66
2021/12/06 00:55:03;;;;;;;3.38;3.08;;;22.20;32.60;;;;;;5128242;28;20046;-66
2021/12/06 00:57:32;;;;;;;4.22;3.83;;;22.20;32.50;;;;;;5129518;28;20088;-66
2021/12/06 00:59:58;;;;;;;4.13;3.83;;;22.00;32.50;;;;;;5129167;28;20375;-67
2021/12/06 01:02:24;;;;;;;4.65;3.80;;;21.80;32.70;;;;;;5127529;28;20050;-66
2021/12/06 01:04:52;;;;;;;3.80;3.45;;;21.70;32.90;;;;;;5128054;28;20367;-66
2021/12/06 01:07:18;;;;;;;3.78;3.47;;;21.70;33.10;;;;;;5129069;28;20096;-66
2021/12/06 01:09:44;;;;;;;4.00;3.60;;;21.80;32.90;;;;;;5127913;28;20466;-66
2021/12/06 01:12:11;;;;;;;3.90;3.60;;;21.80;33.00;;;;;;5128380;28;20060;-66
2021/12/06 01:14:37;;;;;;;4.70;4.18;;;21.80;32.90;;;;;;5112920;28;20551;-66
2021/12/06 01:17:03;;;;;;;4.18;3.80;;;21.90;32.70;;;;;;5113987;28;20118;-66
2021/12/06 01:19:29;;;;;;;4.80;4.18;;;21.90;32.70;;;;;;5115114;28;20044;-66
2021/12/06 01:22:17;;;;;;;4.18;3.78;;;21.80;32.60;;;;;;5113971;28;20044;-66
2021/12/06 01:24:53;;;;;;;4.10;3.70;;;21.80;32.80;;;;;;5113778;28;20048;-66
2021/12/06 01:41:07;;;;;;;5.03;4.30;;;21.90;32.50;;;;;;5129861;28;20044;-66
2021/12/06 01:43:32;;;;;;;4.10;3.70;;;22.00;32.40;;;;;;5128744;27;20383;-66
2021/12/06 01:45:58;;;;;;;4.78;4.38;;;21.90;32.30;;;;;;5128945;27;20043;-66
2021/12/06 01:48:24;;;;;;;4.47;4.07;;;21.90;32.40;;;;;;5130032;28;20388;-66
2021/12/06 01:50:51;;;;;;;4.97;4.47;;;21.90;32.50;;;;;;5129374;27;20487;-66
2021/12/06 01:53:17;;;;;;;4.65;4.25;;;21.80;32.50;;;;;;5129966;28;20035;-66
2021/12/06 01:55:42;;;;;;;5.00;4.50;;;21.80;32.60;;;;;;5128487;28;20506;-67
2021/12/06 01:58:09;;;;;;;4.38;3.95;;;22.00;32.50;;;;;;5129705;28;20079;-66
2021/12/06 02:00:44;;;;;;;4.60;4.20;;;22.10;32.30;;;;;;5129858;28;20039;-67
2021/12/06 02:03:13;;;;;;;4.72;4.20;;;22.00;32.40;;;;;;5129701;28;20035;-67
2021/12/06 02:05:42;;;;;;;4.20;3.80;;;22.00;32.40;;;;;;5128607;28;20079;-66
2021/12/06 02:08:08;;;;;;;4.22;3.83;;;22.00;32.40;;;;;;5128374;28;20047;-68
2021/12/06 02:10:35;;;;;;;4.43;3.22;;;22.00;32.40;;;;;;5128090;28;20118;-68
2021/12/06 02:13:02;;;;;;;3.53;3.22;;;22.10;32.20;;;;;;5128277;28;20141;-67
2021/12/06 02:15:48;;;;;;;3.95;3.60;;;22.10;32.10;;;;;;5128412;27;20039;-66
2021/12/06 02:18:38;;;;;;;3.90;3.53;;;22.10;32.10;;;;;;5128196;28;20047;-67
2021/12/06 02:21:11;;;;;;;4.03;3.63;;;22.10;32.10;;;;;;5129112;28;20047;-67
2021/12/06 02:23:36;;;;;;;4.30;3.90;;;22.10;32.10;;;;;;5127664;28;20047;-67
2021/12/06 02:26:02;;;;;;;4.10;3.70;;;22.00;32.10;;;;;;5128122;28;20383;-66
2021/12/06 02:28:28;;;;;;;4.22;3.83;;;22.00;32.20;;;;;;5127801;28;20406;-66
2021/12/06 02:30:54;;;;;;;3.47;3.17;;;21.90;32.20;;;;;;5129210;28;20464;-67
2021/12/06 02:33:22;;;;;;;4.70;4.30;;;22.00;32.30;;;;;;5127207;28;20056;-66
2021/12/06 02:35:47;;;;;;;5.03;4.55;;;21.90;32.10;;;;;;5128041;28;20039;-66
2021/12/06 02:38:13;;;;;;;3.13;2.83;;;21.70;32.30;;;;;;5129156;28;20543;-67
2021/12/06 02:40:40;;;;;;;4.90;4.38;;;21.60;32.50;;;;;;5118102;28;20050;-67
2021/12/06 02:43:09;;;;;;;4.47;4.07;;;21.70;32.50;;;;;;5115092;28;20081;-66
2021/12/06 02:45:35;;;;;;;4.60;4.20;;;21.60;32.40;;;;;;5115227;28;20047;-66
2021/12/06 02:48:05;;;;;;;5.18;4.20;;;21.80;32.50;;;;;;5113082;28;20127;-67
2021/12/06 02:50:36;;;;;;;4.57;4.10;;;21.90;32.30;;;;;;5114055;28;20483;-66
2021/12/06 02:53:03;;;;;;;4.72;4.25;;;22.10;32.00;;;;;;5114060;28;20093;-66
2021/12/06 02:58:21;;;;;;;3.83;3.53;;;21.80;31.90;;;;;;5130209;27;20777;-66
2021/12/06 03:00:50;;;;;;;5.10;4.60;;;21.70;32.40;;;;;;5128319;28;20509;-66
2021/12/06 03:03:18;;;;;;;5.50;4.97;;;21.60;32.30;;;;;;5128612;28;20047;-66
2021/12/06 03:05:44;;;;;;;5.05;4.65;;;21.50;32.80;;;;;;5128957;28;20104;-66
2021/12/06 03:08:10;;;;;;;5.93;5.32;;;21.40;32.70;;;;;;5126736;28;20384;-66
2021/12/06 03:10:39;;;;;;;4.38;3.97;;;21.50;32.60;;;;;;5130088;28;20043;-67
2021/12/06 03:13:05;;;;;;;5.93;5.32;;;21.60;32.60;;;;;;5128758;28;20070;-66
2021/12/06 03:15:31;;;;;;;5.97;4.90;;;21.60;32.50;;;;;;5128650;28;20039;-67
2021/12/06 03:17:57;;;;;;;6.07;5.10;;;21.60;32.30;;;;;;5128576;28;20047;-66
2021/12/06 03:20:23;;;;;;;5.90;4.80;;;21.70;32.40;;;;;;5128589;28;20067;-66
2021/12/06 03:22:49;;;;;;;5.78;5.22;;;21.80;32.40;;;;;;5128659;28;20047;-66
2021/12/06 03:25:17;;;;;;;4.93;4.43;;;21.70;32.20;;;;;;5128438;28;20046;-67
2021/12/06 03:27:43;;;;;;;5.55;4.95;;;21.80;32.20;;;;;;5129807;28;20051;-66
2021/12/06 03:30:11;;;;;;;5.10;4.43;;;21.80;32.10;;;;;;5128350;28;20035;-67
2021/12/06 03:32:37;;;;;;;6.57;5.20;;;21.70;32.30;;;;;;5128336;28;20600;-66
2021/12/06 03:35:03;;;;;;;6.00;5.30;;;21.70;32.20;;;;;;5128298;28;20043;-67
2021/12/06 03:37:29;;;;;;;5.72;5.13;;;21.50;32.30;;;;;;5128260;28;20070;-66
2021/12/06 03:39:54;;;;;;;6.20;5.28;;;21.30;32.50;;;;;;5128633;28;20071;-66
2021/12/06 03:42:22;;;;;;;5.30;4.72;;;21.30;32.80;;;;;;5129502;28;20478;-66
2021/12/06 03:44:49;;;;;;;6.05;5.38;;;21.30;32.90;;;;;;5128039;27;20116;-66
2021/12/06 03:47:21;;;;;;;6.03;5.43;;;21.40;32.80;;;;;;5128295;28;20039;-66
2021/12/06 03:49:47;;;;;;;5.75;5.15;;;21.40;32.70;;;;;;5127969;28;20088;-66
2021/12/06 03:52:14;;;;;;;6.00;4.70;;;21.40;32.80;;;;;;5128256;28;20035;-66
2021/12/06 03:54:42;;;;;;;5.65;4.72;;;21.40;32.90;;;;;;5129216;28;20043;-66
2021/12/06 03:57:08;;;;;;;6.00;5.40;;;21.40;32.80;;;;;;5127696;28;20069;-66
2021/12/06 03:59:35;;;;;;;6.60;5.93;;;21.40;32.80;;;;;;5127757;28;20500;-66
2021/12/06 04:02:01;;;;;;;5.40;4.85;;;21.20;32.90;;;;;;5129502;28;20344;-66
2021/12/06 04:04:30;;;;;;;7.30;5.68;;;21.20;33.10;;;;;;5129202;27;20036;-66
2021/12/06 04:06:56;;;;;;;5.60;5.10;;;21.20;32.90;;;;;;5128981;27;20058;-67
2021/12/06 04:09:22;;;;;;;7.30;6.57;;;21.20;33.00;;;;;;5114598;28;20513;-66
2021/12/06 04:11:49;;;;;;;6.07;5.47;;;21.10;33.00;;;;;;5115345;28;20043;-66
2021/12/06 04:14:15;;;;;;;6.05;4.97;;;21.10;33.10;;;;;;5114100;28;20059;-66
2021/12/06 04:16:42;;;;;;;7.70;6.90;;;21.30;33.10;;;;;;5115085;28;20052;-66
2021/12/06 04:19:09;;;;;;;6.20;5.60;;;21.20;32.80;;;;;;5115122;28;20586;-66
2021/12/06 04:21:36;;;;;;;6.35;5.75;;;21.20;33.00;;;;;;5115012;28;20050;-66
2021/12/06 04:24:02;;;;;;;7.82;6.65;;;21.40;32.90;;;;;;5115097;28;20063;-66
2021/12/06 04:26:29;;;;;;;8.18;6.80;;;21.40;32.70;;;;;;5113536;28;20047;-67
2021/12/06 04:28:59;;;;;;;8.40;6.85;;;21.30;32.70;;;;;;5113710;28;20039;-66
2021/12/06 04:31:29;;;;;;;8.15;7.28;;;21.30;32.90;;;;;;5114724;28;20046;-66
2021/12/06 04:33:54;;;;;;;6.88;6.18;;;21.30;32.70;;;;;;5113857;28;20268;-66
2021/12/06 04:36:20;;;;;;;6.85;5.97;;;21.20;32.90;;;;;;5113484;28;20490;-66
2021/12/06 04:38:46;;;;;;;7.20;6.07;;;21.20;33.10;;;;;;5113785;28;20039;-66
2021/12/06 04:41:11;;;;;;;6.70;6.05;;;21.20;33.10;;;;;;5114662;28;20526;-66
2021/12/06 04:43:37;;;;;;;7.97;6.70;;;21.30;32.90;;;;;;5114662;28;20073;-66
2021/12/06 04:46:03;;;;;;;9.05;7.35;;;21.30;32.80;;;;;;5113416;28;20050;-66
2021/12/06 04:48:29;;;;;;;10.23;8.35;;;21.30;32.80;;;;;;5113491;28;20043;-66
2021/12/06 04:50:54;;;;;;;8.07;6.07;;;21.20;32.70;;;;;;5114372;28;20047;-66
2021/12/06 04:53:25;;;;;;;9.77;8.77;;;21.30;32.90;;;;;;5114569;28;20102;-66
2021/12/06 04:55:58;;;;;;;8.70;7.70;;;21.40;32.60;;;;;;5114058;28;20097;-66
2021/12/06 04:58:39;;;;;;;9.77;7.60;;;21.30;32.50;;;;;;5113177;28;20062;-66
2021/12/06 05:01:09;;;;;;;11.57;8.93;;;21.20;33.40;;;;;;5112740;28;20043;-66
2021/12/06 05:03:36;;;;;;;8.55;6.80;;;21.10;32.70;;;;;;5113186;28;20044;-66
2021/12/06 05:06:10;;;;;;;9.50;7.72;;;21.10;32.90;;;;;;5112958;28;20113;-66
2021/12/06 05:08:45;;;;;;;8.57;7.72;;;20.90;33.00;;;;;;5114101;28;20079;-66
2021/12/06 05:11:12;;;;;;;8.15;7.03;;;20.80;33.30;;;;;;5114062;28;20047;-66
2021/12/06 05:13:41;;;;;;;9.25;7.80;;;21.10;33.20;;;;;;5113961;28;20037;-66
2021/12/06 05:16:07;;;;;;;10.10;7.70;;;21.40;32.70;;;;;;5111912;28;20042;-66
2021/12/06 05:18:38;;;;;;;9.25;7.53;;;21.70;32.40;;;;;;5113971;28;20047;-66
2021/12/06 05:21:04;;;;;;;9.32;7.43;;;21.70;32.10;;;;;;5113191;28;20067;-66
2021/12/06 05:23:30;;;;;;;10.48;8.95;;;21.60;32.20;;;;;;5112536;28;20043;-66
2021/12/06 05:25:56;;;;;;;9.48;8.48;;;21.50;32.10;;;;;;5112744;28;20039;-66
2021/12/06 05:28:26;;;;;;;9.35;7.88;;;21.40;32.50;;;;;;5113749;28;20422;-66
2021/12/06 05:30:55;;;;;;;10.23;8.73;;;21.30;32.70;;;;;;5113688;28;20291;-66
2021/12/06 05:33:29;;;;;;;12.95;10.07;;;21.20;32.70;;;;;;5113595;28;20113;-66
2021/12/06 05:36:00;;;;;;;11.43;9.57;;;21.10;32.80;;;;;;5112457;28;20509;-66
2021/12/06 05:38:27;;;;;;;10.73;8.23;;;21.10;32.80;;;;;;5113418;28;20048;-66
2021/12/06 05:40:54;;;;;;;9.85;8.00;;;21.10;32.80;;;;;;5113691;28;20042;-66
2021/12/06 05:43:24;;;;;;;10.32;8.38;;;21.20;32.90;;;;;;5113532;28;20582;-67
2021/12/06 05:45:50;;;;;;;15.45;11.88;;;21.50;32.70;;;;;;5113432;28;20032;-66
2021/12/06 05:48:17;;;;;;;10.45;8.90;;;21.40;32.30;;;;;;5113314;28;20391;-66
2021/12/06 05:50:46;;;;;;;11.13;8.82;;;21.30;32.50;;;;;;5112289;28;20089;-66
2021/12/06 05:53:13;;;;;;;12.07;9.23;;;21.40;32.50;;;;;;5113093;28;20039;-66
2021/12/06 05:55:40;;;;;;;13.05;9.95;;;21.50;32.40;;;;;;5113536;28;20141;-66
2021/12/06 05:58:08;;;;;;;12.70;9.35;;;21.50;32.30;;;;;;5111440;28;20100;-66
2021/12/06 06:00:35;;;;;;;11.80;9.00;;;21.40;32.50;;;;;;5113124;28;20418;-66
2021/12/06 06:03:03;;;;;;;11.90;9.02;;;21.30;32.60;;;;;;5113062;28;20046;-66
2021/12/06 06:05:30;;;;;;;11.77;9.52;;;21.50;32.60;;;;;;5111989;28;20387;-66
2021/12/06 06:07:56;;;;;;;10.70;8.90;;;21.70;32.40;;;;;;5112845;28;20119;-66
2021/12/06 06:10:22;;;;;;;12.00;8.95;;;21.80;32.10;;;;;;5112836;28;20044;-66
2021/12/06 06:12:48;;;;;;;9.77;8.07;;;21.80;32.00;;;;;;5111739;28;20503;-66
2021/12/06 06:15:14;;;;;;;11.77;9.00;;;21.70;32.00;;;;;;5110525;28;20115;-67
2021/12/06 06:17:43;;;;;;;13.43;10.82;;;21.60;32.00;;;;;;5110138;28;20646;-69
2021/12/06 06:20:21;;;;;;;10.52;9.18;;;21.40;32.30;;;;;;5110202;28;20061;-67
2021/12/06 06:22:47;;;;;;;11.85;9.35;;;21.00;33.10;;;;;;5112699;28;20032;-67
2021/12/06 06:25:14;;;;;;;11.60;8.82;;;20.90;33.90;;;;;;5111996;28;20372;-64
2021/12/06 06:27:39;;;;;;;11.02;9.05;;;20.80;34.30;;;;;;5111242;28;20054;-64
2021/12/06 06:30:06;;;;;;;11.10;8.05;;;20.70;34.40;;;;;;5111184;28;20039;-64
2021/12/06 06:32:32;;;;;;;10.70;9.38;;;20.70;34.70;;;;;;5110580;28;20148;-65
2021/12/06 06:35:01;;;;;;;10.13;8.88;;;20.70;34.90;;;;;;5111534;28;20375;-64
2021/12/06 06:37:26;;;;;;;10.55;8.77;;;20.70;35.00;;;;;;5111202;28;20051;-66
2021/12/06 06:39:52;;;;;;;9.70;8.25;;;20.70;35.00;;;;;;5111326;28;20039;-64
2021/12/06 06:42:22;;;;;;;11.00;9.20;;;20.50;35.30;;;;;;5110467;28;20487;-65
2021/12/06 06:44:50;;;;;;;11.48;10.05;;;20.50;35.50;;;;;;5110092;28;20061;-65
2021/12/06 06:47:15;;;;;;;14.02;10.52;;;20.30;35.50;;;;;;5108526;28;20482;-65
2021/12/06 06:49:41;;;;;;;12.65;10.40;;;20.20;35.70;;;;;;5107268;28;20130;-65
2021/12/06 06:52:07;;;;;;;14.02;10.75;;;20.10;35.70;;;;;;5110359;28;20032;-65
2021/12/06 06:54:32;;;;;;;12.65;11.25;;;20.10;36.00;;;;;;5108773;28;20035;-65
2021/12/06 06:56:58;;;;;;;20.08;12.43;;;20.40;35.60;;;;;;5109078;28;20043;-63
2021/12/06 06:59:23;;;;;;;16.60;9.52;;;20.50;35.10;;;;;;5105294;28;20048;-63
2021/12/06 07:01:49;;;;;;;13.25;10.20;;;20.50;35.10;;;;;;5103995;28;20080;-64
2021/12/06 07:04:18;;;;;;;14.13;10.20;;;20.60;35.40;;;;;;5099066;28;20035;-64
2021/12/06 07:06:44;;;;;;;16.63;11.13;;;20.50;35.60;;;;;;5115079;28;20055;-64
2021/12/06 07:09:10;;;;;;;14.35;10.48;;;20.50;35.80;;;;;;5097861;28;20073;-63
2021/12/06 07:11:36;;;;;;;15.65;10.52;;;20.50;35.90;;;;;;5099501;28;20073;-63
2021/12/06 07:14:03;;;;;;;16.45;11.60;;;20.40;35.30;;;;;;5096118;28;20039;-65
2021/12/06 07:16:29;;;;;;;13.63;9.88;;;20.40;35.10;;;;;;5103507;28;20856;-64
2021/12/06 07:18:56;;;;;;;15.20;9.90;;;20.30;35.20;;;;;;5102939;28;20119;-65
2021/12/06 07:21:22;;;;;;;13.43;9.75;;;20.30;35.30;;;;;;5102758;28;20032;-63
2021/12/06 07:23:48;;;;;;;16.52;11.73;;;20.30;35.20;;;;;;5093018;28;20028;-64
2021/12/06 07:26:17;;;;;;;14.98;9.98;;;20.40;35.20;;;;;;5107219;28;20048;-64
2021/12/06 07:28:44;;;;;;;11.95;9.65;;;20.30;35.40;;;;;;5089672;28;20036;-65
2021/12/06 07:31:14;;;;;;;14.80;11.63;;;20.30;35.50;;;;;;5092834;28;20124;-66
2021/12/06 07:33:42;;;;;;;20.65;13.68;;;20.30;35.40;;;;;;5092788;28;20055;-66
2021/12/06 07:36:08;;;;;;;17.15;14.00;;;20.30;35.20;;;;;;5077322;28;20040;-66
2021/12/06 07:38:38;;;;;;;18.05;14.25;;;20.40;34.90;;;;;;5083245;28;20910;-66
2021/12/06 07:41:07;;;;;;;17.08;13.68;;;20.60;34.60;;;;;;5089905;28;20111;-65
2021/12/06 07:43:34;;;;;;;16.00;13.48;;;20.80;34.30;;;;;;5086073;28;20122;-65
2021/12/06 07:46:00;;;;;;;18.40;14.63;;;21.10;33.70;;;;;;5095702;28;20503;-66
2021/12/06 07:48:25;;;;;;;15.98;12.27;;;21.50;33.00;;;;;;5096018;28;20127;-69
2021/12/06 07:50:51;;;;;;;15.30;11.27;;;21.80;32.50;;;;;;5110561;27;20131;-67
2021/12/06 07:53:17;;;;;;;13.55;10.80;;;22.10;32.40;;;;;;5087738;28;20367;-67
2021/12/06 07:55:43;;;;;;;15.05;10.13;;;22.60;32.50;;;;;;5094797;28;20070;-67
2021/12/06 07:58:12;;;;;;;16.55;12.18;;;23.00;32.50;;;;;;5097985;27;20052;-67
2021/12/06 08:00:45;;;;;;;11.35;8.32;;;23.10;32.00;;;;;;5087468;27;20131;-66
2021/12/06 08:03:12;;;;;;;11.48;9.25;;;23.10;32.30;;;;;;5092193;28;20046;-66
2021/12/06 08:05:40;;;;;;;15.27;8.52;;;23.20;31.90;;;;;;5088900;28;20032;-66
2021/12/06 08:10:51;;;;;;;13.50;8.57;;;23.10;32.20;;;;;;5100700;27;20451;-71
2021/12/06 08:13:20;;;;;;;12.75;8.52;;;22.80;33.20;;;;;;5078555;28;20143;-68
2021/12/06 08:15:47;;;;;;;10.02;8.63;;;22.50;33.70;;;;;;5074069;28;20114;-68
2021/12/06 08:18:13;;;;;;;9.85;7.57;;;22.20;34.50;;;;;;5078222;28;20048;-66
2021/12/06 08:20:41;;;;;;;10.35;7.82;;;22.00;34.90;;;;;;5083035;28;20048;-64
2021/12/06 08:23:07;;;;;;;11.13;9.05;;;21.90;35.30;;;;;;5082074;28;20501;-66
2021/12/06 08:25:34;;;;;;;12.52;9.88;;;21.60;35.20;;;;;;5062196;28;20067;-67
2021/12/06 08:28:00;;;;;;;15.02;10.07;;;21.40;35.00;;;;;;5061280;28;20055;-66
2021/12/06 08:30:26;;;;;;;15.73;13.15;;;21.60;35.10;;;;;;5065885;28;20049;-67
2021/12/06 08:32:58;;;;;;;10.15;8.93;;;22.20;33.90;;;;;;5076237;28;20096;-66
2021/12/06 08:35:26;;;;;;;10.90;9.15;;;22.80;33.80;;;;;;5070844;28;20151;-64
2021/12/06 08:37:54;;;;;;;13.48;8.98;;;23.70;32.90;;;;;;5072542;28;20033;-66
2021/12/06 08:40:20;;;;;;;11.40;8.48;;;24.70;31.70;;;;;;5090766;28;20053;-64
2021/12/06 08:42:46;;;;;;;10.45;7.80;;;25.30;30.80;;;;;;5070067;28;20730;-65
2021/12/06 08:45:12;;;;;;;7.93;7.13;;;25.50;30.80;;;;;;5069871;28;20032;-64
2021/12/06 08:47:39;;;;;;;13.43;7.65;;;25.50;31.30;;;;;;5071673;28;20040;-68
2021/12/06 08:50:08;;;;;;;8.18;7.30;;;25.50;31.40;;;;;;5091984;28;20399;-64
2021/12/06 08:52:34;;;;;;;10.63;7.90;;;25.60;31.40;;;;;;5077267;28;20039;-70
2021/12/06 08:55:00;;;;;;;10.65;7.53;;;25.50;31.30;;;;;;5074576;28;20032;-66
2021/12/06 08:57:25;;;;;;;8.82;6.78;;;25.60;31.20;;;;;;5071332;28;20557;-74
2021/12/06 08:59:52;;;;;;;11.70;7.72;;;25.60;31.30;;;;;;5074729;28;21735;-66
2021/12/06 09:02:18;;;;;;;7.97;7.18;;;25.60;31.20;;;;;;5073322;28;20051;-68
2021/12/06 09:04:46;;;;;;;7.10;6.15;;;25.50;31.20;;;;;;5090495;28;20045;-67
2021/12/06 09:07:13;;;;;;;9.52;6.70;;;25.40;31.60;;;;;;5080376;28;20085;-72
2021/12/06 09:09:46;;;;;;;7.45;5.85;;;25.60;31.90;;;;;;5071067;28;20117;-66
2021/12/06 09:12:15;;;;;;;7.15;6.03;;;25.80;32.70;;;;;;5092695;28;20037;-66
2021/12/06 09:14:41;;;;;;;8.52;6.00;;;26.30;31.70;;;;;;5092215;28;20074;-72
2021/12/06 09:17:08;;;;;;;14.43;8.82;;;26.40;31.00;;;;;;5074794;28;20123;-71
2021/12/06 09:19:34;;;;;;;12.90;9.15;;;26.20;30.00;;;;;;5079068;28;20040;-65
2021/12/06 09:22:03;;;;;;;12.02;10.55;;;26.00;29.40;;;;;;5061264;28;20552;-66
2021/12/06 09:24:29;;;;;;;11.68;9.98;;;25.80;29.10;;;;;;5065347;28;20032;-69
2021/12/06 09:26:54;;;;;;;11.57;10.23;;;25.80;28.70;;;;;;5067841;28;20051;-65
2021/12/06 09:29:24;;;;;;;10.93;9.18;;;25.80;28.40;;;;;;5067024;28;20640;-64
2021/12/06 09:31:52;;;;;;;13.73;9.40;;;25.70;28.20;;;;;;5080697;28;20032;-68
2021/12/06 09:34:18;;;;;;;12.73;9.82;;;25.50;28.00;;;;;;5067995;28;20056;-67
2021/12/06 09:36:44;;;;;;;10.75;7.90;;;25.70;27.80;;;;;;5072382;28;20753;-66
2021/12/06 09:39:10;;;;;;;9.30;7.88;;;25.70;27.70;;;;;;5058226;28;20101;-66
2021/12/06 09:41:36;;;;;;;10.35;7.88;;;25.80;27.50;;;;;;5068387;28;20133;-66
2021/12/06 09:44:05;;;;;;;10.50;8.07;;;25.80;27.90;;;;;;5062421;28;20033;-66
2021/12/06 09:46:35;;;;;;;9.35;7.70;;;25.90;27.20;;;;;;5059198;28;20045;-66
2021/12/06 09:49:03;;;;;;;;;;;26.00;27.10;;;;;;5068732;28;20036;-66
2021/12/06 09:51:29;;;;;;;10.90;6.72;;;26.10;27.10;;;;;;5058034;28;19920;-66
2021/12/06 09:53:57;;;;;;;8.65;7.05;;;26.10;27.00;;;;;;5063212;28;20045;-65
2021/12/06 09:56:27;;;;;;;7.10;6.40;;;26.00;26.80;;;;;;5068534;28;20131;-68
2021/12/06 09:58:54;;;;;;;7.57;5.57;;;26.00;26.80;;;;;;5056640;28;20136;-65
2021/12/06 10:01:24;;;;;;;8.75;5.72;;;26.10;27.00;;;;;;5051522;28;20290;-65
2021/12/06 10:03:54;;;;;;;6.47;4.35;;;26.20;27.00;;;;;;5056525;28;20076;-68
2021/12/06 10:06:22;;;;;;;5.10;3.70;;;26.30;27.10;;;;;;5057198;28;20041;-67
2021/12/06 10:08:50;;;;;;;5.15;3.58;;;26.10;28.00;;;;;;5059078;28;20060;-67
2021/12/06 10:11:18;;;;;;;4.25;3.10;;;26.00;27.50;;;;;;5059538;28;20037;-68
2021/12/06 10:13:44;;;;;;;5.20;3.05;;;26.20;27.60;;;;;;5075506;28;20036;-66
2021/12/06 10:16:10;;;;;;;4.30;3.03;;;26.30;27.60;;;;;;5058627;28;20035;-68
2021/12/06 10:18:36;;;;;;;5.38;3.92;;;26.50;27.60;;;;;;5063573;28;20596;-66
2021/12/06 10:21:04;;;;;;;2.72;2.35;;;26.40;27.20;;;;;;5058193;28;20048;-67
2021/12/06 10:23:30;;;;;;;3.88;2.85;;;26.10;27.40;;;;;;5058940;28;20455;-68
2021/12/06 10:25:57;;;;;;;6.18;3.20;;;26.10;27.70;;;;;;5055492;28;20476;-67
2021/12/06 10:28:29;;;;;;;5.45;3.17;;;25.90;27.70;;;;;;5056580;28;20639;-66
2021/12/06 10:30:58;;;;;;;5.13;3.53;;;25.90;27.90;;;;;;5054349;28;20049;-64
2021/12/06 10:33:26;;;;;;;3.63;3.10;;;25.90;27.90;;;;;;5061699;28;20068;-67
2021/12/06 10:35:58;;;;;;;2.70;2.25;;;25.70;28.30;;;;;;5078586;28;20086;-64
2021/12/06 10:38:28;;;;;;;4.00;2.20;;;25.70;29.20;;;;;;5064335;28;20051;-63
2021/12/06 10:41:01;;;;;;;6.20;4.05;;;26.00;29.30;;;;;;5060051;28;20490;-65
2021/12/06 10:43:27;;;;;;;4.00;2.88;;;26.30;28.80;;;;;;5080860;28;20691;-68
2021/12/06 10:45:56;;;;;;;6.07;3.25;;;26.30;28.70;;;;;;5063585;28;20044;-67
2021/12/06 10:48:26;;;;;;;5.30;3.80;;;26.30;28.60;;;;;;5056044;28;20095;-64
2021/12/06 10:56:19;;;;;;;3.75;2.42;;;26.50;28.60;;;;;;5068184;27;20466;-66
2021/12/06 10:58:47;;;;;;;3.60;2.88;;;26.50;28.80;;;;;;5070611;28;20051;-67
2021/12/06 11:01:16;;;;;;;5.10;2.85;;;26.60;29.00;;;;;;5046856;28;20043;-64
2021/12/06 11:03:47;;;;;;;7.50;5.70;;;26.80;28.90;;;;;;5049384;28;20083;-65
2021/12/06 11:06:18;;;;;;;8.05;4.63;;;26.90;28.20;;;;;;5049470;28;20040;-69
2021/12/06 11:08:47;;;;;;;8.25;4.93;;;26.70;28.00;;;;;;5049228;28;20433;-65
2021/12/06 11:11:19;;;;;;;6.93;5.55;;;26.50;28.20;;;;;;5049243;28;20036;-68
2021/12/06 11:13:50;;;;;;;8.13;4.93;;;26.10;28.20;;;;;;5050661;28;20124;-66
2021/12/06 11:16:20;;;;;;;9.40;6.57;;;26.30;28.40;;;;;;5047514;28;20052;-66
2021/12/06 11:21:51;;;;;;;6.85;4.95;;;26.20;27.60;;;;;;5120098;27;1166261;-66
2021/12/06 11:32:38;;;;;;;8.07;6.07;;;26.80;26.60;;;;;;5093159;27;20473;-69
2021/12/06 11:37:50;;;;;;;11.82;5.53;;;26.70;27.10;;;;;;5071035;27;20453;-68
2021/12/06 11:43:00;;;;;;;11.13;7.13;;;27.10;27.30;;;;;;5116443;27;1163038;-66
2021/12/06 11:53:44;;;;;;;23.63;9.45;;;26.40;26.80;;;;;;5109472;27;20475;-69
2021/12/06 11:56:14;;;;;;;12.15;7.93;;;25.90;27.40;;;;;;5093964;28;20067;-68
2021/12/06 11:58:43;;;;;;;8.80;7.15;;;26.00;27.20;;;;;;5100709;28;20039;-65
2021/12/06 12:03:53;;;;;;;11.90;5.65;;;26.00;27.10;;;;;;5094322;27;20413;-70
2021/12/06 12:09:12;;;;;;;5.63;4.75;;;26.80;27.20;;;;;;5087787;27;20125;-69
2021/12/06 12:12:15;;;;;;;7.18;4.82;;;27.80;26.10;;;;;;5086977;28;20044;-66
2021/12/06 12:14:45;;;;;;;7.63;4.30;;;27.60;26.30;;;;;;5081721;28;20044;-67
2021/12/06 12:17:13;;;;;;;;;;;27.60;26.40;;;;;;5083009;28;20051;-65
2021/12/06 12:19:40;;;;;;;4.60;3.80;;;27.70;26.50;;;;;;5086133;28;20009;-67
2021/12/06 12:22:07;;;;;;;27.77;9.13;;;27.50;26.60;;;;;;5095929;28;20047;-67
2021/12/06 12:24:35;;;;;;;15.30;6.32;;;27.10;26.80;;;;;;5088047;28;20071;-65
2021/12/06 12:27:16;;;;;;;9.82;5.30;;;26.60;27.30;;;;;;5085928;28;20040;-66
2021/12/06 12:29:43;;;;;;;9.98;4.45;;;26.00;27.90;;;;;;5089094;28;20067;-65
2021/12/06 12:32:10;;;;;;;7.30;3.47;;;25.50;28.90;;;;;;5093068;28;20115;-66
2021/12/06 12:34:41;;;;;;;9.23;4.78;;;25.00;29.90;;;;;;5088658;28;20044;-68
2021/12/06 12:37:10;;;;;;;15.73;7.15;;;24.90;30.30;;;;;;5091571;28;20118;-65
2021/12/06 12:39:37;;;;;;;24.45;10.15;;;24.80;30.20;;;;;;5078578;28;20047;-67
2021/12/06 12:42:06;;;;;;;23.33;8.43;;;24.50;30.00;;;;;;5085592;28;20090;-69
2021/12/06 12:44:52;;;;;;;15.75;7.70;;;24.30;30.10;;;;;;5086940;28;20032;-66
2021/12/06 12:47:21;;;;;;;8.40;5.85;;;24.20;30.60;;;;;;5089571;28;20436;-67
2021/12/06 12:49:50;;;;;;;20.33;7.93;;;24.40;30.60;;;;;;5090708;28;20741;-64
2021/12/06 12:52:33;;;;;;;13.77;5.57;;;24.70;30.70;;;;;;5084200;28;20062;-64
2021/12/06 12:54:59;;;;;;;9.63;6.53;;;25.00;30.50;;;;;;5087495;28;20036;-64
2021/12/06 12:57:37;;;;;;;9.63;5.68;;;25.30;30.20;;;;;;5101368;28;20043;-66
2021/12/06 13:00:05;;;;;;;10.25;6.70;;;25.50;30.10;;;;;;5088424;28;20044;-65
2021/12/06 13:02:35;;;;;;;21.58;7.40;;;25.60;30.00;;;;;;5082259;28;20055;-64
2021/12/06 13:10:29;;;;;;;15.10;11.20;;;25.60;30.00;;;;;;5086022;27;20928;-67
2021/12/06 13:15:51;;;;;;;15.93;11.23;;;24.90;30.00;;;;;;5055766;28;20466;-66
2021/12/06 13:19:04;;;;;;;13.93;10.32;;;23.60;32.10;;;;;;5056764;28;20512;-70
2021/12/06 13:26:58;;;;;;;19.35;10.90;;;23.00;33.30;;;;;;5066949;27;20215;-69
2021/12/06 13:29:29;;;;;;;;;;;22.20;35.00;;;;;;5082718;28;20127;-70
2021/12/06 13:31:56;;;;;;;15.70;9.13;;;21.90;35.30;;;;;;5067550;28;20083;-70
2021/12/06 13:34:27;;;;;;;14.13;8.32;;;21.70;36.60;;;;;;5068954;28;20590;-69
2021/12/06 13:36:57;;;;;;;19.08;10.20;;;21.60;37.60;;;;;;5067724;28;20586;-67
2021/12/06 13:42:37;;;;;;;19.83;13.30;;;21.70;36.80;;;;;;5072575;27;20344;-65
2021/12/06 13:45:06;;;;;;;19.95;12.90;;;21.50;36.70;;;;;;5070141;28;20049;-65
2021/12/06 13:47:32;;;;;;;20.50;13.73;;;21.40;37.00;;;;;;5074543;28;20456;-66
2021/12/06 13:52:51;;;;;;;24.02;19.67;;;21.20;36.90;;;;;;5100242;27;20466;-65
2021/12/06 13:55:24;;;;;;;23.75;18.50;;;21.10;35.90;;;;;;5103480;27;20051;-65
2021/12/06 13:57:53;;;;;;;24.65;18.45;;;21.20;35.30;;;;;;5100187;27;20044;-65
2021/12/06 14:00:25;;;;;;;21.52;16.05;;;21.30;35.00;;;;;;5105256;28;20053;-66
2021/12/06 14:02:55;;;;;;;32.50;18.83;;;22.00;34.70;;;;;;5104713;28;20054;-70
2021/12/06 14:05:25;;;;;;;28.08;20.35;;;22.30;33.50;;;;;;5112897;28;20117;-71